Flight Track Log - Related Links

Times and Time Zones

All times are in EDT time to prevent confusion due to time zone crossing. See the N738LC flight status page for this flight to view local times or setup timezone preferences in your user account.

Time Position Orientation Groundspeed Altitude Reporting Facility
EDT Latitude Longitude Course Direction KTS MPH feet Rate Location/Type
Wed 08:37:14 AM 35.3600 -94.4008 25° Northeast 81 93 2,900  Level Memphis Center
Wed 08:38:16 AM 35.3781 -94.3883 29° Northeast 80 92 3,700 629 Climbing Memphis Center
Wed 08:39:18 AM 35.3953 -94.3767 29° Northeast 77 89 4,200 581 Climbing Memphis Center
Wed 08:40:00 AM 35.4722 -94.2611 25° Northeast  Level FlightAware Approximate
Wed 08:40:20 AM 35.4128 -94.3639 31° Northeast 76 87 4,900  Level Memphis Center
Wed 08:41:00 AM 35.5019 -94.2442 25° Northeast  Level FlightAware Approximate
Wed 08:41:21 AM 35.4344 -94.3508 26° Northeast 74 85 5,600  Level Memphis Center
Wed 08:42:00 AM 35.5316 -94.2272 25° Northeast  Level FlightAware Approximate
Wed 08:42:23 AM 35.4531 -94.3394 26° Northeast 74 85 6,100  Level Memphis Center
Wed 08:43:25 AM 35.4708 -94.3278 28° Northeast 74 85 6,500 387 Climbing Memphis Center
Wed 08:44:27 AM 35.4903 -94.3153 28° Northeast 75 86 6,900 387 Climbing Memphis Center
Wed 08:45:29 AM 35.5106 -94.3039 25° Northeast 76 87 7,300 339 Climbing Memphis Center
Wed 08:46:31 AM 35.5289 -94.2914 29° Northeast 76 87 7,600 290 Climbing Memphis Center
Wed 08:47:33 AM 35.5481 -94.2806 25° Northeast 76 87 7,900 290 Climbing Memphis Center
Wed 08:48:35 AM 35.5661 -94.2678 30° Northeast 76 87 8,200 341 Climbing Memphis Center
Wed 08:49:36 AM 35.5886 -94.2542 26° Northeast 76 87 8,600 341 Climbing Memphis Center
Wed 08:50:38 AM 35.6083 -94.2422 26° Northeast 76 87 8,900 242 Climbing Memphis Center
Wed 08:51:40 AM 35.6267 -94.2283 32° Northeast 76 87 9,100 97 Climbing Memphis Center
Wed 08:52:42 AM 35.6500 -94.2136 27° Northeast 81 93 9,100  Level Memphis Center
Wed 08:53:44 AM 35.6769 -94.1953 29° Northeast 96 110 9,100 -48 Level Memphis Center
Wed 08:54:46 AM 35.7028 -94.1747 33° Northeast 104 120 9,000 -97 Descending Memphis Center
Wed 08:55:48 AM 35.7311 -94.1553 29° Northeast 111 128 8,900  Descending Memphis Center
Wed 08:56:50 AM 35.7644 -94.1339 28° Northeast 112 129 9,000 48 Climbing Memphis Center
Wed 08:57:52 AM 35.7925 -94.1156 28° Northeast 112 129 9,000 -48 Level Memphis Center
Wed 08:58:54 AM 35.8192 -94.0967 30° Northeast 112 129 8,900 -48 Descending Memphis Center
Wed 08:59:56 AM 35.8458 -94.0789 28° Northeast 111 128 8,900  Level Memphis Center
Wed 09:00:58 AM 35.8714 -94.0622 28° Northeast 108 124 8,900  Level Memphis Center
Wed 09:02:00 AM 35.8972 -94.0453 28° Northeast 108 124 8,900 97 Level Memphis Center
Wed 09:03:02 AM 35.9283 -94.0250 28° Northeast 108 124 9,100 97 Climbing Memphis Center
Wed 09:04:04 AM 35.9553 -94.0072 28° Northeast 108 124 9,100  Level Memphis Center
Wed 09:05:06 AM 35.9817 -93.9908 27° Northeast 108 124 9,100  Level Memphis Center
Wed 09:06:08 AM 36.0111 -93.9725 27° Northeast 108 124 9,100  Level Memphis Center
Wed 09:07:10 AM 36.0378 -93.9539 29° Northeast 108 124 9,100  Level Memphis Center
Wed 09:08:12 AM 36.0644 -93.9356 29° Northeast 108 124 9,100 48 Level Memphis Center
Wed 09:09:14 AM 36.0914 -93.9175 28° Northeast 109 125 9,200  Climbing Memphis Center
Wed 09:10:16 AM 36.1261 -93.8944 28° Northeast 110 127 9,100  Descending Memphis Center
Wed 09:11:18 AM 36.1525 -93.8758 30° Northeast 110 127 9,200 48 Climbing Memphis Center
Wed 09:12:20 AM 36.1806 -93.8567 29° Northeast 110 127 9,200  Level Memphis Center
Wed 09:13:22 AM 36.2092 -93.8397 26° Northeast 110 127 9,200  Level Memphis Center
Wed 09:14:25 AM 36.2375 -93.8214 28° Northeast 111 128 9,200  Level Memphis Center
Wed 09:15:27 AM 36.2656 -93.8017 30° Northeast 111 128 9,200  Level Memphis Center
Wed 09:16:29 AM 36.2992 -93.7789 29° Northeast 111 128 9,200  Level Memphis Center
Wed 09:17:31 AM 36.3278 -93.7625 25° Northeast 111 128 9,200 -48 Level Memphis Center
Wed 09:18:33 AM 36.3572 -93.7422 29° Northeast 114 131 9,100 -48 Descending Memphis Center
Wed 09:19:35 AM 36.3867 -93.7231 28° Northeast 117 135 9,100 -48 Level Memphis Center
Wed 09:20:37 AM 36.4139 -93.7031 31° Northeast 117 135 9,000 -48 Descending Memphis Center
Wed 09:21:39 AM 36.4439 -93.6844 27° Northeast 117 135 9,000 -48 Level Memphis Center
Wed 09:22:41 AM 36.4764 -93.6617 29° Northeast 117 135 8,900 -48 Descending Memphis Center
Wed 09:23:43 AM 36.5058 -93.6422 28° Northeast 117 135 8,900  Level Memphis Center
Wed 09:24:45 AM 36.5336 -93.6239 28° Northeast 117 135 8,900  Level Memphis Center
Wed 09:25:47 AM 36.5614 -93.6058 28° Northeast 116 133 8,900  Level Memphis Center
Wed 09:26:49 AM 36.5886 -93.5869 29° Northeast 116 133 8,900  Level Memphis Center
Wed 09:27:51 AM 36.6161 -93.5672 30° Northeast 116 133 8,900  Level Memphis Center
Wed 09:28:53 AM 36.6519 -93.5450 26° Northeast 116 133 8,900  Level Memphis Center
Wed 09:29:56 AM 36.6803 -93.5242 31° Northeast 116 133 8,900  Level Memphis Center
Wed 09:30:58 AM 36.7089 -93.5069 26° Northeast 116 133 8,900  Level Memphis Center
Wed 09:32:00 AM 36.7344 -93.4878 31° Northeast 116 133 8,900  Level Memphis Center
Wed 09:32:45 AM 36.7572 -93.4764 22° Northeast 113 130 8,900 71 Level Kansas City Center
Wed 09:33:25 AM 36.7753 -93.4597 36° Northeast 114 131 9,000 59 Climbing Kansas City Center
Wed 09:34:26 AM 36.8033 -93.4417 27° Northeast 114 131 9,000 -49 Level Kansas City Center
Wed 09:35:27 AM 36.8286 -93.4236 30° Northeast 113 130 8,900 -49 Descending Kansas City Center
Wed 09:36:28 AM 36.8567 -93.4053 28° Northeast 112 129 8,900  Level Kansas City Center
Wed 09:36:46 AM 36.8675 -93.4003 20° North 110 127 8,900  Level Kansas City Center
Wed 09:37:32 AM 36.8889 -93.3836 32° Northeast 111 128 8,900  Level Kansas City Center
Wed 09:38:32 AM 36.9167 -93.3658 27° Northeast 111 128 8,900  Level Kansas City Center
Wed 09:39:33 AM 36.9433 -93.3458 31° Northeast 111 128 8,900  Level Kansas City Center
Wed 09:40:36 AM 36.9708 -93.3278 28° Northeast 111 128 8,900  Level Kansas City Center
Wed 09:41:10 AM 36.9856 -93.3183 27° Northeast 109 125 8,900  Level Kansas City Center
Wed 09:41:37 AM 36.9975 -93.3094 31° Northeast 110 127 8,900 68 Level Kansas City Center
Wed 09:42:38 AM 37.0256 -93.2914 27° Northeast 110 127 9,000 48 Climbing Kansas City Center
Wed 09:43:42 AM 37.0539 -93.2736 27° Northeast 111 128 9,000  Level Kansas City Center
Wed 09:44:42 AM 37.0819 -93.2536 30° Northeast 112 129 9,000 -48 Level Kansas City Center
Wed 09:45:46 AM 37.1097 -93.2342 29° Northeast 112 129 8,900 -48 Descending Kansas City Center
Wed 09:46:47 AM 37.1428 -93.2119 28° Northeast 112 129 8,900  Level Kansas City Center
Wed 09:47:48 AM 37.1703 -93.1925 29° Northeast 112 129 8,900  Level Kansas City Center
Wed 09:48:46 AM 37.1953 -93.1711 34° Northeast 113 130 8,900  Level Kansas City Center
Wed 09:49:52 AM 37.2250 -93.1525 26° Northeast 112 129 8,900  Level Kansas City Center
Wed 09:50:54 AM 37.2525 -93.1331 29° Northeast 113 130 8,900  Level Kansas City Center
Wed 09:51:54 AM 37.2803 -93.1139 29° Northeast 113 130 8,900  Level Kansas City Center
Wed 09:52:49 AM 37.3053 -93.0917 35° Northeast 111 128 8,900  Level Kansas City Center
Wed 09:53:59 AM 37.3347 -93.0753 24° Northeast 113 130 8,900  Level Kansas City Center
Wed 09:55:00 AM 37.3678 -93.0519 29° Northeast 112 129 8,900  Level Kansas City Center
Wed 09:56:02 AM 37.3950 -93.0347 27° Northeast 112 129 8,900  Level Kansas City Center
Wed 09:56:49 AM 37.4153 -93.0169 35° Northeast 113 130 8,900  Level Kansas City Center
Wed 09:57:04 AM 37.4228 -93.0147 13° North 112 129 8,900  Level Kansas City Center
Wed 09:58:07 AM 37.4506 -92.9950 29° Northeast 113 130 8,900  Level Kansas City Center
Wed 09:59:10 AM 37.4778 -92.9761 29° Northeast 113 130 8,900  Level Kansas City Center
Wed 10:00:10 AM 37.5061 -92.9556 30° Northeast 113 130 8,900  Level Kansas City Center
Wed 10:00:50 AM 37.5269 -92.9369 35° Northeast 116 133 8,900  Level Kansas City Center
Wed 10:01:14 AM 37.5347 -92.9358 North 114 131 8,900  Level Kansas City Center
Wed 10:02:15 AM 37.5628 -92.9156 30° Northeast 114 131 8,900  Level Kansas City Center
Wed 10:03:16 AM 37.5964 -92.8933 28° Northeast 113 130 8,900  Level Kansas City Center
Wed 10:04:18 AM 37.6236 -92.8739 29° Northeast 113 130 8,900  Level Kansas City Center
Wed 10:04:49 AM 37.6367 -92.8594 41° Northeast 114 131 8,900  Level Kansas City Center
Wed 10:05:19 AM 37.6514 -92.8550 13° North 113 130 8,900  Level Kansas City Center
Wed 10:06:23 AM 37.6794 -92.8356 29° Northeast 113 130 8,900  Level Kansas City Center
Wed 10:07:24 AM 37.7072 -92.8156 30° Northeast 113 130 8,900  Level Kansas City Center
Wed 10:08:25 AM 37.7356 -92.7961 28° Northeast 113 130 8,900 49 Level Kansas City Center
Wed 10:09:26 AM 37.7625 -92.7778 28° Northeast 113 130 9,000 48 Climbing Kansas City Center
Wed 10:10:30 AM 37.7903 -92.7581 29° Northeast 113 130 9,000  Level Kansas City Center
Wed 10:11:25 AM 37.8192 -92.7367 30° Northeast 117 135 9,000  Level Kansas City Center
Wed 10:12:31 AM 37.8525 -92.7142 28° Northeast 113 130 9,000 -46 Level Kansas City Center
Wed 10:13:35 AM 37.8817 -92.6933 29° Northeast 114 131 8,900 -288 Descending Kansas City Center
Wed 10:14:36 AM 37.9136 -92.6714 28° Northeast 122 140 8,400 -600 Descending Kansas City Center
Wed 10:15:25 AM 37.9403 -92.6481 35° Northeast 136 157 7,800 -689 Descending Kansas City Center
Wed 10:15:37 AM 37.9442 -92.6447 34° Northeast 127 146 7,700 -560 Descending Kansas City Center
Wed 10:16:40 AM 37.9719 -92.6147 40° Northeast 129 148 7,100 -677 Descending Kansas City Center
Wed 10:17:41 AM 37.9994 -92.5858 40° Northeast 129 148 6,300 -871 Descending Kansas City Center
Wed 10:18:44 AM 38.0267 -92.5581 39° Northeast 128 147 5,300 -1,189 Descending Kansas City Center
Wed 10:19:27 AM 38.0483 -92.5386 35° Northeast 124 143 4,200 -1,574 Descending Kansas City Center
Wed 10:19:45 AM 38.0542 -92.5308 46° Northeast 128 147 3,700 -805 Descending Kansas City Center
Wed 10:20:49 AM 38.0803 -92.5025 40° Northeast 127 146 3,100 -336 Descending Kansas City Center
Wed 10:21:50 AM 38.1114 -92.4692 40° Northeast 122 140 3,000 -49 Descending Kansas City Center
Wed 10:22:51 AM 38.1372 -92.4403 41° Northeast 122 140 3,000 -62 Level Kansas City Center
Wed 10:23:27 AM 38.1519 -92.4236 42° Northeast 120 138 2,900 -98 Descending Kansas City Center
Wed 10:23:52 AM 38.1631 -92.4131 37° Northeast 122 140 2,900 69 Level Kansas City Center
Wed 10:24:54 AM 38.1914 -92.3950 27° Northeast 117 135 3,000 49 Climbing Kansas City Center
Wed 10:25:55 AM 38.2181 -92.3792 25° Northeast 111 128 3,000  Level Kansas City Center
Wed 10:26:59 AM 38.2469 -92.3614 26° Northeast 111 128 3,000 66 Level Kansas City Center
Wed 10:27:26 AM 38.2647 -92.3503 26° Northeast 119 137 3,100 98 Climbing Kansas City Center
Wed 10:28:00 AM 38.2769 -92.3428 26° Northeast 113 130 3,100 -63 Level Kansas City Center
Wed 10:29:01 AM 38.3050 -92.3225 30° Northeast 113 130 3,000 -48 Descending Kansas City Center
Wed 10:30:05 AM 38.3328 -92.3025 29° Northeast 113 130 3,000 -48 Level Kansas City Center
Wed 10:31:05 AM 38.3661 -92.2800 28° Northeast 113 130 2,900 -50 Descending Kansas City Center
Wed 10:32:06 AM 38.3936 -92.2611 28° Northeast 113 130 2,900 48 Level Kansas City Center
Wed 10:33:10 AM 38.4219 -92.2417 28° Northeast 113 130 3,000 -96 Climbing Kansas City Center
Wed 10:34:11 AM 38.4514 -92.2200 30° Northeast 114 131 2,700 -344 Descending Kansas City Center
Wed 10:35:12 AM 38.4819 -92.1908 37° Northeast 125 144 2,300 -295 Descending Kansas City Center
Wed 10:36:13 AM 38.5103 -92.1592 41° Northeast 130 150 2,100 -242 Descending Kansas City Center
Wed 10:37:16 AM 38.5394 -92.1364 31° Northeast 129 148 1,800 -432 Descending Kansas City Center
Wed 10:38:18 AM 38.5678 -92.1347 North 112 129 1,200 -393 Descending Kansas City Center
Wed 10:39:18 AM 38.5908 -92.1386 352° North 98 113 1,000 -200 Descending Kansas City Center
Wed 10:41:00 AM 38.5912 -92.1561 230° Southwest  Level Estimated
Wed 10:48:00 AM 38.5912 -92.1561 28° Northeast  Level Estimated

Login

Don't have an account? Register now (free) for customized features, flight alerts, and more!